sensor_id;sensor_type;location;lat;lon;timestamp;pressure;altitude;pressure_sealevel;temperature;humidity
48606;BME280;8482;54.396;18.590;2023-05-10T00:00:52;102016.06;;;12.30;40.21
48606;BME280;8482;54.396;18.590;2023-05-10T00:03:18;102012.78;;;12.26;40.65
48606;BME280;8482;54.396;18.590;2023-05-10T00:05:44;102005.09;;;12.21;40.45
48606;BME280;8482;54.396;18.590;2023-05-10T00:08:10;102002.94;;;12.14;40.80
48606;BME280;8482;54.396;18.590;2023-05-10T00:10:36;102003.03;;;12.12;40.75
48606;BME280;8482;54.396;18.590;2023-05-10T00:13:03;102013.88;;;12.09;40.80
48606;BME280;8482;54.396;18.590;2023-05-10T00:15:29;102008.00;;;12.04;40.99
48606;BME280;8482;54.396;18.590;2023-05-10T00:17:56;102002.19;;;11.97;41.19
48606;BME280;8482;54.396;18.590;2023-05-10T00:20:22;102004.22;;;11.93;41.53
48606;BME280;8482;54.396;18.590;2023-05-10T00:22:48;102013.13;;;11.92;41.43
48606;BME280;8482;54.396;18.590;2023-05-10T00:25:14;102010.78;;;11.88;41.53
48606;BME280;8482;54.396;18.590;2023-05-10T00:27:40;102010.13;;;11.84;41.84
48606;BME280;8482;54.396;18.590;2023-05-10T00:30:06;102020.19;;;11.79;41.82
48606;BME280;8482;54.396;18.590;2023-05-10T00:32:32;102010.16;;;11.70;42.45
48606;BME280;8482;54.396;18.590;2023-05-10T00:34:58;102018.38;;;11.65;43.08
48606;BME280;8482;54.396;18.590;2023-05-10T00:37:24;102013.59;;;11.57;43.16
48606;BME280;8482;54.396;18.590;2023-05-10T00:39:50;102009.88;;;11.45;43.36
48606;BME280;8482;54.396;18.590;2023-05-10T00:42:16;102020.69;;;11.42;43.43
48606;BME280;8482;54.396;18.590;2023-05-10T00:44:42;102006.47;;;11.29;44.05
48606;BME280;8482;54.396;18.590;2023-05-10T00:47:08;101999.19;;;11.18;44.47
48606;BME280;8482;54.396;18.590;2023-05-10T00:49:35;102004.75;;;11.13;44.74
48606;BME280;8482;54.396;18.590;2023-05-10T00:52:01;102007.03;;;11.05;45.15
48606;BME280;8482;54.396;18.590;2023-05-10T00:54:28;102006.66;;;10.97;45.61
48606;BME280;8482;54.396;18.590;2023-05-10T00:56:54;102007.97;;;10.89;45.84
48606;BME280;8482;54.396;18.590;2023-05-10T00:59:22;102002.16;;;10.83;45.70
48606;BME280;8482;54.396;18.590;2023-05-10T01:01:49;102000.75;;;10.77;45.79
48606;BME280;8482;54.396;18.590;2023-05-10T01:04:15;102000.25;;;10.70;46.07
48606;BME280;8482;54.396;18.590;2023-05-10T01:06:42;101984.22;;;10.57;46.37
48606;BME280;8482;54.396;18.590;2023-05-10T01:09:08;101997.56;;;10.56;46.36
48606;BME280;8482;54.396;18.590;2023-05-10T01:11:39;102000.59;;;10.50;46.94
48606;BME280;8482;54.396;18.590;2023-05-10T01:14:06;101989.66;;;10.40;46.97
48606;BME280;8482;54.396;18.590;2023-05-10T01:16:39;101992.44;;;10.37;47.18
48606;BME280;8482;54.396;18.590;2023-05-10T01:19:19;101994.44;;;10.33;47.31
48606;BME280;8482;54.396;18.590;2023-05-10T01:34:21;101983.09;;;9.99;48.05
48606;BME280;8482;54.396;18.590;2023-05-10T01:37:02;101988.50;;;9.97;48.38
48606;BME280;8482;54.396;18.590;2023-05-10T01:39:42;101972.34;;;9.86;48.64
48606;BME280;8482;54.396;18.590;2023-05-10T01:42:12;101982.16;;;9.84;48.82
48606;BME280;8482;54.396;18.590;2023-05-10T01:44:41;101985.00;;;9.81;48.69
48606;BME280;8482;54.396;18.590;2023-05-10T01:49:56;101987.31;;;9.71;49.14
48606;BME280;8482;54.396;18.590;2023-05-10T01:52:33;101985.00;;;9.65;49.51
48606;BME280;8482;54.396;18.590;2023-05-10T01:55:04;101987.03;;;9.60;49.95
48606;BME280;8482;54.396;18.590;2023-05-10T01:57:37;101994.22;;;9.58;49.90
48606;BME280;8482;54.396;18.590;2023-05-10T02:00:09;101984.84;;;9.52;49.95
48606;BME280;8482;54.396;18.590;2023-05-10T02:02:40;101985.00;;;9.49;50.24
48606;BME280;8482;54.396;18.590;2023-05-10T02:05:09;101990.53;;;9.44;50.56
48606;BME280;8482;54.396;18.590;2023-05-10T02:07:37;101985.47;;;9.40;50.67
48606;BME280;8482;54.396;18.590;2023-05-10T02:10:06;101982.25;;;9.34;50.79
48606;BME280;8482;54.396;18.590;2023-05-10T02:12:42;101991.38;;;9.29;50.86
48606;BME280;8482;54.396;18.590;2023-05-10T02:15:11;101981.03;;;9.24;50.82
48606;BME280;8482;54.396;18.590;2023-05-10T02:17:39;101984.88;;;9.18;51.15
48606;BME280;8482;54.396;18.590;2023-05-10T02:20:09;101976.44;;;9.10;51.25
48606;BME280;8482;54.396;18.590;2023-05-10T02:22:37;101980.63;;;8.98;51.63
48606;BME280;8482;54.396;18.590;2023-05-10T02:25:06;101973.00;;;8.92;51.46
48606;BME280;8482;54.396;18.590;2023-05-10T02:27:36;101980.94;;;8.92;51.75
48606;BME280;8482;54.396;18.590;2023-05-10T02:30:04;101982.09;;;8.86;51.89
48606;BME280;8482;54.396;18.590;2023-05-10T02:32:31;101978.84;;;8.81;52.32
48606;BME280;8482;54.396;18.590;2023-05-10T02:34:59;101984.47;;;8.75;52.13
48606;BME280;8482;54.396;18.590;2023-05-10T02:37:28;101975.34;;;8.63;52.64
48606;BME280;8482;54.396;18.590;2023-05-10T02:39:56;101979.00;;;8.61;52.61
48606;BME280;8482;54.396;18.590;2023-05-10T02:42:26;101975.59;;;8.58;52.73
48606;BME280;8482;54.396;18.590;2023-05-10T02:44:59;101981.03;;;8.55;53.00
48606;BME280;8482;54.396;18.590;2023-05-10T02:47:27;101976.75;;;8.53;53.18
48606;BME280;8482;54.396;18.590;2023-05-10T02:49:54;101978.81;;;8.46;53.57
48606;BME280;8482;54.396;18.590;2023-05-10T02:52:27;101988.47;;;8.47;53.22
48606;BME280;8482;54.396;18.590;2023-05-10T02:55:01;101978.97;;;8.43;53.60
48606;BME280;8482;54.396;18.590;2023-05-10T02:57:33;101977.50;;;8.37;53.75
48606;BME280;8482;54.396;18.590;2023-05-10T03:00:00;101986.34;;;8.36;53.56
48606;BME280;8482;54.396;18.590;2023-05-10T03:02:27;101984.72;;;8.34;54.12
48606;BME280;8482;54.396;18.590;2023-05-10T03:04:53;101982.16;;;8.32;54.23
48606;BME280;8482;54.396;18.590;2023-05-10T03:07:19;101981.63;;;8.25;54.43
48606;BME280;8482;54.396;18.590;2023-05-10T03:09:50;101973.06;;;8.20;54.46
48606;BME280;8482;54.396;18.590;2023-05-10T03:13:07;101983.47;;;8.23;54.55
48606;BME280;8482;54.396;18.590;2023-05-10T03:18:36;101973.97;;;8.19;53.95
48606;BME280;8482;54.396;18.590;2023-05-10T03:21:04;101987.09;;;8.21;54.32
48606;BME280;8482;54.396;18.590;2023-05-10T03:24:01;101988.91;;;8.20;54.55
48606;BME280;8482;54.396;18.590;2023-05-10T03:26:31;101986.25;;;8.20;54.14
48606;BME280;8482;54.396;18.590;2023-05-10T03:28:58;101987.09;;;8.21;54.88
48606;BME280;8482;54.396;18.590;2023-05-10T03:31:25;101980.19;;;8.18;54.57
48606;BME280;8482;54.396;18.590;2023-05-10T03:33:52;101985.44;;;8.20;54.44
48606;BME280;8482;54.396;18.590;2023-05-10T03:36:19;101976.63;;;8.19;54.90
48606;BME280;8482;54.396;18.590;2023-05-10T03:38:45;101984.41;;;8.22;54.91
48606;BME280;8482;54.396;18.590;2023-05-10T03:41:11;101986.97;;;8.24;54.76
48606;BME280;8482;54.396;18.590;2023-05-10T03:43:37;101985.09;;;8.26;54.57
48606;BME280;8482;54.396;18.590;2023-05-10T03:46:04;101984.03;;;8.30;54.27
48606;BME280;8482;54.396;18.590;2023-05-10T03:48:31;101983.88;;;8.33;54.19
48606;BME280;8482;54.396;18.590;2023-05-10T03:50:57;101981.00;;;8.38;53.87
48606;BME280;8482;54.396;18.590;2023-05-10T03:53:24;101982.50;;;8.43;54.12
48606;BME280;8482;54.396;18.590;2023-05-10T03:55:50;101988.34;;;8.50;53.80
48606;BME280;8482;54.396;18.590;2023-05-10T03:58:16;101980.09;;;8.56;53.16
48606;BME280;8482;54.396;18.590;2023-05-10T04:00:42;101982.50;;;8.61;53.36
48606;BME280;8482;54.396;18.590;2023-05-10T04:03:13;101989.91;;;8.72;52.32
48606;BME280;8482;54.396;18.590;2023-05-10T04:05:39;101980.88;;;8.76;51.62
48606;BME280;8482;54.396;18.590;2023-05-10T04:08:05;101987.25;;;8.89;51.54
48606;BME280;8482;54.396;18.590;2023-05-10T04:10:32;101985.03;;;8.98;50.88
48606;BME280;8482;54.396;18.590;2023-05-10T04:12:58;101971.56;;;9.02;50.56
48606;BME280;8482;54.396;18.590;2023-05-10T04:15:24;101986.88;;;9.13;50.09
48606;BME280;8482;54.396;18.590;2023-05-10T04:17:50;101975.22;;;9.17;49.64
48606;BME280;8482;54.396;18.590;2023-05-10T04:20:16;101978.03;;;9.30;49.30
48606;BME280;8482;54.396;18.590;2023-05-10T04:22:42;101985.56;;;9.38;48.96
48606;BME280;8482;54.396;18.590;2023-05-10T04:25:09;101986.69;;;9.50;48.67
48606;BME280;8482;54.396;18.590;2023-05-10T04:27:35;101968.94;;;9.52;48.20
48606;BME280;8482;54.396;18.590;2023-05-10T04:30:02;101979.03;;;9.61;47.83
48606;BME280;8482;54.396;18.590;2023-05-10T04:32:27;101979.44;;;9.70;47.59
48606;BME280;8482;54.396;18.590;2023-05-10T04:34:53;101982.53;;;9.78;47.64
48606;BME280;8482;54.396;18.590;2023-05-10T04:37:19;101968.16;;;9.82;47.37
48606;BME280;8482;54.396;18.590;2023-05-10T04:39:46;101968.75;;;9.87;47.03
48606;BME280;8482;54.396;18.590;2023-05-10T04:42:12;101976.09;;;9.98;46.70
48606;BME280;8482;54.396;18.590;2023-05-10T04:44:40;101965.25;;;10.03;46.53
48606;BME280;8482;54.396;18.590;2023-05-10T04:47:06;101977.84;;;10.13;46.25
48606;BME280;8482;54.396;18.590;2023-05-10T04:49:32;101978.47;;;10.19;46.04
48606;BME280;8482;54.396;18.590;2023-05-10T04:51:58;101978.13;;;10.25;45.88
48606;BME280;8482;54.396;18.590;2023-05-10T04:54:24;101969.97;;;10.28;45.45
48606;BME280;8482;54.396;18.590;2023-05-10T04:56:50;101984.34;;;10.40;45.24
48606;BME280;8482;54.396;18.590;2023-05-10T04:59:16;101974.41;;;10.43;44.98
48606;BME280;8482;54.396;18.590;2023-05-10T05:01:41;101967.81;;;10.51;45.31
48606;BME280;8482;54.396;18.590;2023-05-10T05:04:07;101978.91;;;10.57;44.81
48606;BME280;8482;54.396;18.590;2023-05-10T05:06:33;101972.38;;;10.63;44.92
48606;BME280;8482;54.396;18.590;2023-05-10T05:08:59;101973.88;;;10.67;45.03
48606;BME280;8482;54.396;18.590;2023-05-10T05:11:25;101979.78;;;10.72;44.35
48606;BME280;8482;54.396;18.590;2023-05-10T05:13:51;101966.22;;;10.77;44.21
48606;BME280;8482;54.396;18.590;2023-05-10T05:16:17;101968.53;;;10.83;44.11
48606;BME280;8482;54.396;18.590;2023-05-10T05:18:43;101974.50;;;10.87;43.93
48606;BME280;8482;54.396;18.590;2023-05-10T05:21:16;101970.78;;;10.89;44.12
48606;BME280;8482;54.396;18.590;2023-05-10T05:23:42;101973.38;;;10.91;43.66
48606;BME280;8482;54.396;18.590;2023-05-10T05:26:09;101965.03;;;10.97;43.73
48606;BME280;8482;54.396;18.590;2023-05-10T05:28:35;101972.53;;;11.05;43.81
48606;BME280;8482;54.396;18.590;2023-05-10T05:31:04;101968.75;;;11.09;43.48
48606;BME280;8482;54.396;18.590;2023-05-10T05:33:31;101970.22;;;11.13;43.58
48606;BME280;8482;54.396;18.590;2023-05-10T05:35:57;101969.22;;;11.16;43.29
48606;BME280;8482;54.396;18.590;2023-05-10T05:38:22;101971.47;;;11.22;43.02
48606;BME280;8482;54.396;18.590;2023-05-10T05:40:49;101963.22;;;11.27;43.40
48606;BME280;8482;54.396;18.590;2023-05-10T05:43:14;101953.53;;;11.26;43.07
48606;BME280;8482;54.396;18.590;2023-05-10T05:45:40;101968.81;;;11.37;43.02
48606;BME280;8482;54.396;18.590;2023-05-10T05:48:06;101961.59;;;11.39;43.04
48606;BME280;8482;54.396;18.590;2023-05-10T05:50:32;101971.94;;;11.43;43.29
48606;BME280;8482;54.396;18.590;2023-05-10T05:52:58;101962.06;;;11.45;43.59
48606;BME280;8482;54.396;18.590;2023-05-10T05:55:24;101961.75;;;11.50;43.15
48606;BME280;8482;54.396;18.590;2023-05-10T05:57:51;101969.44;;;11.55;43.13
48606;BME280;8482;54.396;18.590;2023-05-10T06:00:17;101964.88;;;11.57;43.06
48606;BME280;8482;54.396;18.590;2023-05-10T06:02:43;101957.47;;;11.62;43.36
48606;BME280;8482;54.396;18.590;2023-05-10T06:05:09;101961.56;;;11.68;43.41
48606;BME280;8482;54.396;18.590;2023-05-10T06:07:35;101962.19;;;11.71;43.62
48606;BME280;8482;54.396;18.590;2023-05-10T06:10:01;101961.06;;;11.75;43.40
48606;BME280;8482;54.396;18.590;2023-05-10T06:12:26;101966.06;;;11.80;43.79
48606;BME280;8482;54.396;18.590;2023-05-10T06:14:52;101956.09;;;11.84;43.56
48606;BME280;8482;54.396;18.590;2023-05-10T06:17:18;101957.78;;;11.85;43.31
48606;BME280;8482;54.396;18.590;2023-05-10T06:19:44;101961.00;;;11.90;43.19
48606;BME280;8482;54.396;18.590;2023-05-10T06:22:10;101958.06;;;11.94;43.31
48606;BME280;8482;54.396;18.590;2023-05-10T06:24:35;101961.28;;;12.00;43.66
48606;BME280;8482;54.396;18.590;2023-05-10T06:27:01;101955.44;;;12.07;43.46
48606;BME280;8482;54.396;18.590;2023-05-10T06:29:27;101950.69;;;12.13;43.63
48606;BME280;8482;54.396;18.590;2023-05-10T06:31:53;101948.47;;;12.19;43.75
48606;BME280;8482;54.396;18.590;2023-05-10T06:34:19;101950.72;;;12.25;43.29
48606;BME280;8482;54.396;18.590;2023-05-10T06:36:45;101941.47;;;12.31;43.70
48606;BME280;8482;54.396;18.590;2023-05-10T06:39:11;101945.53;;;12.37;43.16
48606;BME280;8482;54.396;18.590;2023-05-10T06:41:37;101944.38;;;12.41;43.40
48606;BME280;8482;54.396;18.590;2023-05-10T06:44:03;101949.91;;;12.51;42.75
48606;BME280;8482;54.396;18.590;2023-05-10T06:46:29;101946.00;;;12.56;42.87
48606;BME280;8482;54.396;18.590;2023-05-10T06:48:55;101939.50;;;12.61;42.60
48606;BME280;8482;54.396;18.590;2023-05-10T06:51:21;101938.03;;;12.69;42.51
48606;BME280;8482;54.396;18.590;2023-05-10T06:53:47;101941.00;;;12.78;42.33
48606;BME280;8482;54.396;18.590;2023-05-10T06:56:13;101938.88;;;12.83;42.54
48606;BME280;8482;54.396;18.590;2023-05-10T06:58:38;101937.59;;;12.88;42.44
48606;BME280;8482;54.396;18.590;2023-05-10T07:01:05;101934.59;;;12.93;42.22
48606;BME280;8482;54.396;18.590;2023-05-10T07:03:32;101937.47;;;13.03;42.35
48606;BME280;8482;54.396;18.590;2023-05-10T07:06:02;101945.88;;;13.10;42.02
48606;BME280;8482;54.396;18.590;2023-05-10T07:08:30;101940.00;;;13.17;41.43
48606;BME280;8482;54.396;18.590;2023-05-10T07:11:04;101936.06;;;13.23;41.54
48606;BME280;8482;54.396;18.590;2023-05-10T07:13:31;101932.31;;;13.26;41.61
48606;BME280;8482;54.396;18.590;2023-05-10T07:15:58;101936.84;;;13.37;41.38
48606;BME280;8482;54.396;18.590;2023-05-10T07:18:25;101937.31;;;13.43;41.01
48606;BME280;8482;54.396;18.590;2023-05-10T07:20:51;101938.56;;;13.51;40.68
48606;BME280;8482;54.396;18.590;2023-05-10T07:23:17;101934.47;;;13.58;40.70
48606;BME280;8482;54.396;18.590;2023-05-10T07:25:51;101926.66;;;13.68;40.40
48606;BME280;8482;54.396;18.590;2023-05-10T07:28:20;101928.91;;;13.74;40.43
48606;BME280;8482;54.396;18.590;2023-05-10T07:30:46;101931.09;;;13.80;40.12
48606;BME280;8482;54.396;18.590;2023-05-10T07:33:14;101926.78;;;13.90;39.51
48606;BME280;8482;54.396;18.590;2023-05-10T07:35:39;101924.41;;;13.99;38.99
48606;BME280;8482;54.396;18.590;2023-05-10T07:38:05;101923.94;;;14.05;38.72
48606;BME280;8482;54.396;18.590;2023-05-10T07:40:31;101913.91;;;14.08;39.08
48606;BME280;8482;54.396;18.590;2023-05-10T07:42:57;101915.13;;;14.16;38.13
48606;BME280;8482;54.396;18.590;2023-05-10T07:45:23;101922.41;;;14.25;38.25
48606;BME280;8482;54.396;18.590;2023-05-10T07:47:50;101919.31;;;14.31;38.45
48606;BME280;8482;54.396;18.590;2023-05-10T07:50:16;101922.97;;;14.41;37.63
48606;BME280;8482;54.396;18.590;2023-05-10T07:52:41;101917.16;;;14.48;37.45
48606;BME280;8482;54.396;18.590;2023-05-10T07:55:08;101916.69;;;14.54;37.69
48606;BME280;8482;54.396;18.590;2023-05-10T07:57:35;101916.09;;;14.62;37.64
48606;BME280;8482;54.396;18.590;2023-05-10T08:00:00;101921.81;;;14.68;37.49
48606;BME280;8482;54.396;18.590;2023-05-10T08:02:26;101924.75;;;14.77;37.04
48606;BME280;8482;54.396;18.590;2023-05-10T08:04:52;101914.31;;;14.85;36.41
48606;BME280;8482;54.396;18.590;2023-05-10T08:07:18;101918.44;;;14.89;36.08
48606;BME280;8482;54.396;18.590;2023-05-10T08:09:44;101924.88;;;14.98;36.44
48606;BME280;8482;54.396;18.590;2023-05-10T08:12:10;101917.59;;;15.11;35.21
48606;BME280;8482;54.396;18.590;2023-05-10T08:14:36;101910.28;;;15.13;34.23
48606;BME280;8482;54.396;18.590;2023-05-10T08:17:04;101912.34;;;15.21;34.11
48606;BME280;8482;54.396;18.590;2023-05-10T08:19:30;101908.94;;;15.30;34.44
48606;BME280;8482;54.396;18.590;2023-05-10T08:21:56;101914.38;;;15.40;34.58
48606;BME280;8482;54.396;18.590;2023-05-10T08:24:23;101909.53;;;15.45;34.01
48606;BME280;8482;54.396;18.590;2023-05-10T08:26:48;101901.84;;;15.52;34.02
48606;BME280;8482;54.396;18.590;2023-05-10T08:29:15;101901.34;;;15.58;33.59
48606;BME280;8482;54.396;18.590;2023-05-10T08:31:41;101906.66;;;15.70;32.85
48606;BME280;8482;54.396;18.590;2023-05-10T08:34:07;101915.16;;;15.75;32.97
48606;BME280;8482;54.396;18.590;2023-05-10T08:36:33;101913.94;;;15.79;32.61
48606;BME280;8482;54.396;18.590;2023-05-10T08:38:59;101895.31;;;15.89;31.69
48606;BME280;8482;54.396;18.590;2023-05-10T08:41:25;101888.00;;;15.91;31.50
48606;BME280;8482;54.396;18.590;2023-05-10T08:43:54;101893.81;;;15.96;31.51
48606;BME280;8482;54.396;18.590;2023-05-10T08:46:22;101879.91;;;16.02;31.52
48606;BME280;8482;54.396;18.590;2023-05-10T08:48:50;101874.19;;;16.07;31.96
48606;BME280;8482;54.396;18.590;2023-05-10T08:51:24;101892.53;;;16.12;31.52
48606;BME280;8482;54.396;18.590;2023-05-10T08:53:54;101884.22;;;16.15;31.08
48606;BME280;8482;54.396;18.590;2023-05-10T08:56:20;101871.16;;;16.21;30.01
48606;BME280;8482;54.396;18.590;2023-05-10T08:58:46;101877.84;;;16.27;29.92
48606;BME280;8482;54.396;18.590;2023-05-10T09:01:15;101866.84;;;16.30;29.93
48606;BME280;8482;54.396;18.590;2023-05-10T09:03:42;101893.84;;;16.38;29.88
48606;BME280;8482;54.396;18.590;2023-05-10T09:06:08;101880.16;;;16.42;29.71
48606;BME280;8482;54.396;18.590;2023-05-10T09:08:36;101885.84;;;16.48;29.72
48606;BME280;8482;54.396;18.590;2023-05-10T09:11:03;101879.41;;;16.51;29.56
48606;BME280;8482;54.396;18.590;2023-05-10T09:13:30;101898.06;;;16.62;29.56
48606;BME280;8482;54.396;18.590;2023-05-10T09:15:56;101898.38;;;16.69;29.61
48606;BME280;8482;54.396;18.590;2023-05-10T09:18:22;101886.13;;;16.76;29.01
48606;BME280;8482;54.396;18.590;2023-05-10T09:20:48;101880.66;;;16.78;29.16
48606;BME280;8482;54.396;18.590;2023-05-10T09:23:14;101881.53;;;16.88;29.17
48606;BME280;8482;54.396;18.590;2023-05-10T09:25:42;101886.63;;;16.91;29.20
48606;BME280;8482;54.396;18.590;2023-05-10T09:28:08;101868.06;;;16.99;28.65
48606;BME280;8482;54.396;18.590;2023-05-10T09:30:37;101884.59;;;17.05;28.24
48606;BME280;8482;54.396;18.590;2023-05-10T09:33:03;101878.66;;;17.11;28.33
48606;BME280;8482;54.396;18.590;2023-05-10T09:35:32;101873.88;;;17.14;28.43
48606;BME280;8482;54.396;18.590;2023-05-10T09:38:04;101870.81;;;17.19;28.43
48606;BME280;8482;54.396;18.590;2023-05-10T09:40:30;101863.91;;;17.26;28.58
48606;BME280;8482;54.396;18.590;2023-05-10T09:43:03;101865.16;;;17.32;28.57
48606;BME280;8482;54.396;18.590;2023-05-10T09:45:34;101857.00;;;17.43;28.61
48606;BME280;8482;54.396;18.590;2023-05-10T09:48:02;101872.41;;;17.51;28.61
48606;BME280;8482;54.396;18.590;2023-05-10T09:50:29;101877.34;;;17.56;27.91
48606;BME280;8482;54.396;18.590;2023-05-10T09:52:59;101865.63;;;17.57;27.62
48606;BME280;8482;54.396;18.590;2023-05-10T09:55:43;101868.75;;;17.62;27.30
48606;BME280;8482;54.396;18.590;2023-05-10T09:58:15;101863.09;;;17.65;27.35
48606;BME280;8482;54.396;18.590;2023-05-10T10:00:43;101858.59;;;17.75;27.51
48606;BME280;8482;54.396;18.590;2023-05-10T10:03:18;101873.09;;;17.83;27.59
48606;BME280;8482;54.396;18.590;2023-05-10T10:05:46;101852.63;;;17.91;26.90
48606;BME280;8482;54.396;18.590;2023-05-10T10:08:13;101854.88;;;17.96;26.69
48606;BME280;8482;54.396;18.590;2023-05-10T10:10:40;101856.47;;;17.99;26.83
48606;BME280;8482;54.396;18.590;2023-05-10T10:13:07;101837.53;;;18.00;26.88
48606;BME280;8482;54.396;18.590;2023-05-10T10:15:34;101842.31;;;18.06;26.79
48606;BME280;8482;54.396;18.590;2023-05-10T10:18:01;101834.97;;;18.08;27.07
48606;BME280;8482;54.396;18.590;2023-05-10T10:20:28;101840.16;;;18.20;26.81
48606;BME280;8482;54.396;18.590;2023-05-10T10:22:54;101830.28;;;18.20;26.89
48606;BME280;8482;54.396;18.590;2023-05-10T10:25:21;101830.72;;;18.26;27.19
48606;BME280;8482;54.396;18.590;2023-05-10T10:30:43;101829.38;;;18.40;26.38
48606;BME280;8482;54.396;18.590;2023-05-10T10:35:38;101829.81;;;18.45;26.05
48606;BME280;8482;54.396;18.590;2023-05-10T10:38:08;101828.38;;;18.50;26.19
48606;BME280;8482;54.396;18.590;2023-05-10T10:40:34;101818.16;;;18.54;26.19
48606;BME280;8482;54.396;18.590;2023-05-10T10:43:26;101795.06;;;18.61;26.03
48606;BME280;8482;54.396;18.590;2023-05-10T10:48:39;101800.94;;;18.75;25.96
48606;BME280;8482;54.396;18.590;2023-05-10T10:51:05;101802.75;;;18.84;25.96
48606;BME280;8482;54.396;18.590;2023-05-10T10:53:32;101803.00;;;18.91;26.23
48606;BME280;8482;54.396;18.590;2023-05-10T10:56:08;101803.09;;;18.99;25.94
48606;BME280;8482;54.396;18.590;2023-05-10T10:58:37;101797.66;;;19.09;26.58
48606;BME280;8482;54.396;18.590;2023-05-10T11:01:12;101814.50;;;19.29;27.32
48606;BME280;8482;54.396;18.590;2023-05-10T11:03:38;101786.50;;;19.40;27.35
48606;BME280;8482;54.396;18.590;2023-05-10T11:06:04;101785.91;;;19.46;26.78
48606;BME280;8482;54.396;18.590;2023-05-10T11:08:32;101800.28;;;19.55;26.08
48606;BME280;8482;54.396;18.590;2023-05-10T11:13:44;101787.06;;;19.62;25.30
48606;BME280;8482;54.396;18.590;2023-05-10T11:16:22;101798.88;;;19.69;25.07
48606;BME280;8482;54.396;18.590;2023-05-10T11:19:07;101794.56;;;19.76;24.50
48606;BME280;8482;54.396;18.590;2023-05-10T11:21:36;101788.03;;;19.79;24.34
48606;BME280;8482;54.396;18.590;2023-05-10T11:24:15;101786.84;;;19.81;24.51
48606;BME280;8482;54.396;18.590;2023-05-10T11:26:41;101784.59;;;19.86;24.47
48606;BME280;8482;54.396;18.590;2023-05-10T11:29:07;101784.63;;;19.95;24.55
48606;BME280;8482;54.396;18.590;2023-05-10T11:31:34;101791.09;;;20.02;24.36
48606;BME280;8482;54.396;18.590;2023-05-10T11:34:01;101781.53;;;20.08;24.22
48606;BME280;8482;54.396;18.590;2023-05-10T11:36:35;101787.81;;;20.16;24.38
48606;BME280;8482;54.396;18.590;2023-05-10T11:39:03;101777.91;;;20.25;24.44
48606;BME280;8482;54.396;18.590;2023-05-10T11:41:31;101779.47;;;20.36;24.36
48606;BME280;8482;54.396;18.590;2023-05-10T11:43:58;101773.47;;;20.42;24.38
48606;BME280;8482;54.396;18.590;2023-05-10T11:46:26;101769.47;;;20.55;24.53
48606;BME280;8482;54.396;18.590;2023-05-10T11:48:58;101777.94;;;20.68;24.44
48606;BME280;8482;54.396;18.590;2023-05-10T11:51:27;101776.81;;;20.79;24.33
48606;BME280;8482;54.396;18.590;2023-05-10T11:53:55;101784.75;;;20.89;24.01
48606;BME280;8482;54.396;18.590;2023-05-10T11:56:22;101785.13;;;20.94;23.75
48606;BME280;8482;54.396;18.590;2023-05-10T11:58:55;101778.91;;;21.02;23.74
48606;BME280;8482;54.396;18.590;2023-05-10T12:01:22;101774.03;;;21.13;23.79
48606;BME280;8482;54.396;18.590;2023-05-10T12:03:51;101771.66;;;21.27;23.70
48606;BME280;8482;54.396;18.590;2023-05-10T12:06:19;101764.63;;;21.34;23.37
48606;BME280;8482;54.396;18.590;2023-05-10T12:08:47;101776.06;;;21.44;23.49
48606;BME280;8482;54.396;18.590;2023-05-10T12:11:13;101779.78;;;21.52;23.78
48606;BME280;8482;54.396;18.590;2023-05-10T12:13:43;101799.22;;;21.64;23.48
48606;BME280;8482;54.396;18.590;2023-05-10T12:16:22;101771.56;;;21.70;23.36
48606;BME280;8482;54.396;18.590;2023-05-10T12:18:55;101777.63;;;21.80;23.11
48606;BME280;8482;54.396;18.590;2023-05-10T12:21:21;101774.41;;;21.85;22.88
48606;BME280;8482;54.396;18.590;2023-05-10T12:23:54;101761.34;;;21.97;23.06
48606;BME280;8482;54.396;18.590;2023-05-10T12:26:27;101769.97;;;22.00;23.12
48606;BME280;8482;54.396;18.590;2023-05-10T12:28:54;101764.22;;;22.12;23.00
48606;BME280;8482;54.396;18.590;2023-05-10T12:31:20;101765.38;;;22.17;22.66
48606;BME280;8482;54.396;18.590;2023-05-10T12:33:47;101755.03;;;22.29;22.56
48606;BME280;8482;54.396;18.590;2023-05-10T12:36:16;101761.41;;;22.37;22.41
48606;BME280;8482;54.396;18.590;2023-05-10T12:38:46;101757.16;;;22.50;22.45
48606;BME280;8482;54.396;18.590;2023-05-10T12:41:18;101759.16;;;22.57;22.17
48606;BME280;8482;54.396;18.590;2023-05-10T12:43:45;101768.25;;;22.64;22.36
48606;BME280;8482;54.396;18.590;2023-05-10T12:46:14;101764.13;;;22.76;22.55
48606;BME280;8482;54.396;18.590;2023-05-10T12:48:42;101766.44;;;22.88;21.98
48606;BME280;8482;54.396;18.590;2023-05-10T12:51:08;101758.16;;;22.89;21.78
48606;BME280;8482;54.396;18.590;2023-05-10T12:53:38;101752.31;;;23.01;21.83
48606;BME280;8482;54.396;18.590;2023-05-10T12:56:04;101748.53;;;23.10;21.62
48606;BME280;8482;54.396;18.590;2023-05-10T12:58:31;101751.50;;;23.23;21.96
48606;BME280;8482;54.396;18.590;2023-05-10T13:00:58;101756.50;;;23.35;21.46
48606;BME280;8482;54.396;18.590;2023-05-10T13:03:25;101749.81;;;23.46;21.49
48606;BME280;8482;54.396;18.590;2023-05-10T13:05:51;101744.81;;;23.57;21.38
48606;BME280;8482;54.396;18.590;2023-05-10T13:08:18;101747.97;;;23.76;21.32
48606;BME280;8482;54.396;18.590;2023-05-10T13:10:44;101748.84;;;23.92;20.46
48606;BME280;8482;54.396;18.590;2023-05-10T13:13:10;101741.72;;;23.99;20.29
48606;BME280;8482;54.396;18.590;2023-05-10T13:15:36;101727.97;;;24.00;20.44
48606;BME280;8482;54.396;18.590;2023-05-10T13:18:02;101746.91;;;24.15;20.52
48606;BME280;8482;54.396;18.590;2023-05-10T13:20:28;101735.78;;;24.25;20.29
48606;BME280;8482;54.396;18.590;2023-05-10T13:22:54;101724.00;;;24.33;19.94
48606;BME280;8482;54.396;18.590;2023-05-10T13:25:21;101735.38;;;24.43;19.81